sensor_id;sensor_type;location;lat;lon;timestamp;P1;durP1;ratioP1;P2;durP2;ratioP2
37205;SDS011;23099;42.636;23.198;2022-09-21T00:01:06;5.00;;;1.77;;
37205;SDS011;23099;42.636;23.198;2022-09-21T00:03:34;5.35;;;1.80;;
37205;SDS011;23099;42.636;23.198;2022-09-21T00:06:01;4.43;;;1.30;;
37205;SDS011;23099;42.636;23.198;2022-09-21T00:08:29;3.03;;;1.08;;
37205;SDS011;23099;42.636;23.198;2022-09-21T00:10:57;4.85;;;1.27;;
37205;SDS011;23099;42.636;23.198;2022-09-21T00:13:24;2.70;;;1.00;;
37205;SDS011;23099;42.636;23.198;2022-09-21T00:15:52;4.45;;;1.95;;
37205;SDS011;23099;42.636;23.198;2022-09-21T00:18:19;4.45;;;1.50;;
37205;SDS011;23099;42.636;23.198;2022-09-21T00:20:46;3.40;;;1.50;;
37205;SDS011;23099;42.636;23.198;2022-09-21T00:23:13;5.13;;;1.70;;
37205;SDS011;23099;42.636;23.198;2022-09-21T00:25:40;3.97;;;1.65;;
37205;SDS011;23099;42.636;23.198;2022-09-21T00:28:08;5.28;;;2.75;;
37205;SDS011;23099;42.636;23.198;2022-09-21T00:30:36;6.13;;;2.60;;
37205;SDS011;23099;42.636;23.198;2022-09-21T00:33:03;6.43;;;2.63;;
37205;SDS011;23099;42.636;23.198;2022-09-21T00:35:30;5.35;;;2.35;;
37205;SDS011;23099;42.636;23.198;2022-09-21T00:37:59;7.07;;;2.38;;
37205;SDS011;23099;42.636;23.198;2022-09-21T00:40:26;3.60;;;1.42;;
37205;SDS011;23099;42.636;23.198;2022-09-21T00:42:53;4.65;;;1.98;;
37205;SDS011;23099;42.636;23.198;2022-09-21T00:45:21;6.97;;;2.00;;
37205;SDS011;23099;42.636;23.198;2022-09-21T00:47:49;5.97;;;1.90;;
37205;SDS011;23099;42.636;23.198;2022-09-21T00:50:18;4.88;;;1.80;;
37205;SDS011;23099;42.636;23.198;2022-09-21T00:52:48;4.78;;;1.40;;
37205;SDS011;23099;42.636;23.198;2022-09-21T00:55:18;6.15;;;1.63;;
37205;SDS011;23099;42.636;23.198;2022-09-21T00:57:57;4.82;;;1.70;;
37205;SDS011;23099;42.636;23.198;2022-09-21T01:00:30;8.80;;;1.75;;
37205;SDS011;23099;42.636;23.198;2022-09-21T01:02:56;5.22;;;1.65;;
37205;SDS011;23099;42.636;23.198;2022-09-21T01:05:25;4.20;;;1.50;;
37205;SDS011;23099;42.636;23.198;2022-09-21T01:07:53;3.03;;;1.37;;
37205;SDS011;23099;42.636;23.198;2022-09-21T01:10:22;5.55;;;2.25;;
37205;SDS011;23099;42.636;23.198;2022-09-21T01:12:53;7.70;;;1.77;;
37205;SDS011;23099;42.636;23.198;2022-09-21T01:18:02;5.28;;;1.60;;
37205;SDS011;23099;42.636;23.198;2022-09-21T01:20:56;5.18;;;1.60;;
37205;SDS011;23099;42.636;23.198;2022-09-21T01:26:47;6.05;;;1.70;;
37205;SDS011;23099;42.636;23.198;2022-09-21T01:29:40;5.90;;;2.17;;
37205;SDS011;23099;42.636;23.198;2022-09-21T01:32:12;5.72;;;1.88;;
37205;SDS011;23099;42.636;23.198;2022-09-21T01:34:43;8.10;;;2.92;;
37205;SDS011;23099;42.636;23.198;2022-09-21T01:37:15;5.35;;;1.77;;
37205;SDS011;23099;42.636;23.198;2022-09-21T01:39:46;7.40;;;2.38;;
37205;SDS011;23099;42.636;23.198;2022-09-21T01:42:18;5.80;;;2.20;;
37205;SDS011;23099;42.636;23.198;2022-09-21T01:47:14;7.15;;;2.00;;
37205;SDS011;23099;42.636;23.198;2022-09-21T01:49:44;4.70;;;1.83;;
37205;SDS011;23099;42.636;23.198;2022-09-21T01:52:17;7.00;;;2.03;;
37205;SDS011;23099;42.636;23.198;2022-09-21T01:54:48;7.05;;;2.58;;
37205;SDS011;23099;42.636;23.198;2022-09-21T01:57:22;7.30;;;2.90;;
37205;SDS011;23099;42.636;23.198;2022-09-21T01:59:56;5.55;;;2.17;;
37205;SDS011;23099;42.636;23.198;2022-09-21T02:02:28;4.03;;;1.98;;
37205;SDS011;23099;42.636;23.198;2022-09-21T02:05:00;7.15;;;1.88;;
37205;SDS011;23099;42.636;23.198;2022-09-21T02:07:28;4.05;;;1.65;;
37205;SDS011;23099;42.636;23.198;2022-09-21T02:09:57;6.40;;;1.98;;
37205;SDS011;23099;42.636;23.198;2022-09-21T02:12:25;4.15;;;1.73;;
37205;SDS011;23099;42.636;23.198;2022-09-21T02:14:52;4.72;;;1.48;;
37205;SDS011;23099;42.636;23.198;2022-09-21T02:17:33;5.75;;;1.85;;
37205;SDS011;23099;42.636;23.198;2022-09-21T02:20:07;3.53;;;1.33;;
37205;SDS011;23099;42.636;23.198;2022-09-21T02:22:46;4.45;;;1.50;;
37205;SDS011;23099;42.636;23.198;2022-09-21T02:25:21;3.13;;;1.27;;
37205;SDS011;23099;42.636;23.198;2022-09-21T02:27:58;3.25;;;1.23;;
37205;SDS011;23099;42.636;23.198;2022-09-21T02:30:32;5.97;;;1.20;;
37205;SDS011;23099;42.636;23.198;2022-09-21T02:33:06;3.90;;;1.10;;
37205;SDS011;23099;42.636;23.198;2022-09-21T02:35:39;5.65;;;1.55;;
37205;SDS011;23099;42.636;23.198;2022-09-21T02:38:10;4.15;;;1.65;;
37205;SDS011;23099;42.636;23.198;2022-09-21T02:40:46;3.83;;;1.35;;
37205;SDS011;23099;42.636;23.198;2022-09-21T02:43:19;4.07;;;1.27;;
37205;SDS011;23099;42.636;23.198;2022-09-21T02:45:49;3.33;;;1.10;;
37205;SDS011;23099;42.636;23.198;2022-09-21T02:48:23;6.78;;;1.35;;
37205;SDS011;23099;42.636;23.198;2022-09-21T02:50:55;3.25;;;1.25;;
37205;SDS011;23099;42.636;23.198;2022-09-21T02:53:28;3.22;;;1.30;;
37205;SDS011;23099;42.636;23.198;2022-09-21T02:55:57;2.55;;;0.82;;
37205;SDS011;23099;42.636;23.198;2022-09-21T02:58:31;4.22;;;0.73;;
37205;SDS011;23099;42.636;23.198;2022-09-21T03:01:01;3.13;;;0.90;;
37205;SDS011;23099;42.636;23.198;2022-09-21T03:03:34;2.58;;;0.90;;
37205;SDS011;23099;42.636;23.198;2022-09-21T03:06:01;2.30;;;0.80;;
37205;SDS011;23099;42.636;23.198;2022-09-21T03:08:28;2.13;;;0.73;;
37205;SDS011;23099;42.636;23.198;2022-09-21T03:10:55;1.63;;;0.55;;
37205;SDS011;23099;42.636;23.198;2022-09-21T03:13:23;3.42;;;0.70;;
37205;SDS011;23099;42.636;23.198;2022-09-21T03:15:57;2.00;;;0.60;;
37205;SDS011;23099;42.636;23.198;2022-09-21T03:18:25;2.33;;;0.68;;
37205;SDS011;23099;42.636;23.198;2022-09-21T03:20:53;3.13;;;0.77;;
37205;SDS011;23099;42.636;23.198;2022-09-21T03:23:20;2.95;;;0.80;;
37205;SDS011;23099;42.636;23.198;2022-09-21T03:25:46;2.63;;;0.77;;
37205;SDS011;23099;42.636;23.198;2022-09-21T03:28:13;4.22;;;0.80;;
37205;SDS011;23099;42.636;23.198;2022-09-21T03:30:41;2.72;;;0.80;;
37205;SDS011;23099;42.636;23.198;2022-09-21T03:33:08;1.85;;;0.80;;
37205;SDS011;23099;42.636;23.198;2022-09-21T03:35:36;5.93;;;0.93;;
37205;SDS011;23099;42.636;23.198;2022-09-21T03:38:05;3.72;;;0.80;;
37205;SDS011;23099;42.636;23.198;2022-09-21T03:40:32;1.80;;;0.70;;
37205;SDS011;23099;42.636;23.198;2022-09-21T03:42:59;2.67;;;0.77;;
37205;SDS011;23099;42.636;23.198;2022-09-21T03:45:26;2.03;;;0.70;;
37205;SDS011;23099;42.636;23.198;2022-09-21T03:47:53;2.42;;;0.70;;
37205;SDS011;23099;42.636;23.198;2022-09-21T03:50:21;3.17;;;1.08;;
37205;SDS011;23099;42.636;23.198;2022-09-21T03:52:48;2.38;;;0.60;;
37205;SDS011;23099;42.636;23.198;2022-09-21T03:55:16;3.25;;;1.00;;
37205;SDS011;23099;42.636;23.198;2022-09-21T03:57:43;2.17;;;0.65;;
37205;SDS011;23099;42.636;23.198;2022-09-21T04:00:10;3.47;;;1.10;;
37205;SDS011;23099;42.636;23.198;2022-09-21T04:02:37;4.97;;;1.77;;
37205;SDS011;23099;42.636;23.198;2022-09-21T04:05:05;3.33;;;0.93;;
37205;SDS011;23099;42.636;23.198;2022-09-21T04:07:33;3.42;;;1.00;;
37205;SDS011;23099;42.636;23.198;2022-09-21T04:10:00;9.02;;;2.97;;
37205;SDS011;23099;42.636;23.198;2022-09-21T04:12:28;7.65;;;2.35;;
37205;SDS011;23099;42.636;23.198;2022-09-21T04:17:22;7.07;;;2.40;;
37205;SDS011;23099;42.636;23.198;2022-09-21T04:19:48;5.35;;;2.08;;
37205;SDS011;23099;42.636;23.198;2022-09-21T04:22:15;6.90;;;2.50;;
37205;SDS011;23099;42.636;23.198;2022-09-21T04:24:42;5.38;;;1.88;;
37205;SDS011;23099;42.636;23.198;2022-09-21T04:27:09;4.75;;;1.83;;
37205;SDS011;23099;42.636;23.198;2022-09-21T04:29:38;4.72;;;1.80;;
37205;SDS011;23099;42.636;23.198;2022-09-21T04:32:05;8.00;;;1.92;;
37205;SDS011;23099;42.636;23.198;2022-09-21T04:34:32;4.85;;;1.15;;
37205;SDS011;23099;42.636;23.198;2022-09-21T04:36:58;4.28;;;1.63;;
37205;SDS011;23099;42.636;23.198;2022-09-21T04:39:25;5.60;;;2.53;;
37205;SDS011;23099;42.636;23.198;2022-09-21T04:41:52;7.75;;;2.13;;
37205;SDS011;23099;42.636;23.198;2022-09-21T04:44:18;5.35;;;2.03;;
37205;SDS011;23099;42.636;23.198;2022-09-21T04:46:46;7.93;;;1.67;;
37205;SDS011;23099;42.636;23.198;2022-09-21T04:49:13;3.83;;;1.20;;
37205;SDS011;23099;42.636;23.198;2022-09-21T04:51:40;7.85;;;0.95;;
37205;SDS011;23099;42.636;23.198;2022-09-21T04:54:07;3.17;;;1.00;;
37205;SDS011;23099;42.636;23.198;2022-09-21T04:56:34;5.22;;;1.00;;
37205;SDS011;23099;42.636;23.198;2022-09-21T04:59:01;7.05;;;1.00;;
37205;SDS011;23099;42.636;23.198;2022-09-21T05:01:28;4.38;;;1.48;;
37205;SDS011;23099;42.636;23.198;2022-09-21T05:03:57;3.95;;;1.05;;
37205;SDS011;23099;42.636;23.198;2022-09-21T05:06:25;5.65;;;1.15;;
37205;SDS011;23099;42.636;23.198;2022-09-21T05:08:52;3.97;;;0.85;;
37205;SDS011;23099;42.636;23.198;2022-09-21T05:11:37;2.92;;;0.75;;
37205;SDS011;23099;42.636;23.198;2022-09-21T05:14:04;5.55;;;1.10;;
37205;SDS011;23099;42.636;23.198;2022-09-21T05:16:31;4.03;;;0.90;;
37205;SDS011;23099;42.636;23.198;2022-09-21T05:18:59;5.25;;;0.93;;
37205;SDS011;23099;42.636;23.198;2022-09-21T05:21:26;6.45;;;1.08;;
37205;SDS011;23099;42.636;23.198;2022-09-21T05:23:53;8.63;;;1.85;;
37205;SDS011;23099;42.636;23.198;2022-09-21T05:26:21;6.20;;;1.45;;
37205;SDS011;23099;42.636;23.198;2022-09-21T05:28:48;4.05;;;1.10;;
37205;SDS011;23099;42.636;23.198;2022-09-21T05:31:23;3.65;;;1.10;;
37205;SDS011;23099;42.636;23.198;2022-09-21T05:33:58;5.45;;;0.95;;
37205;SDS011;23099;42.636;23.198;2022-09-21T05:36:35;5.00;;;0.80;;
37205;SDS011;23099;42.636;23.198;2022-09-21T05:39:11;3.00;;;0.90;;
37205;SDS011;23099;42.636;23.198;2022-09-21T05:41:38;3.42;;;0.95;;
37205;SDS011;23099;42.636;23.198;2022-09-21T05:44:05;14.18;;;4.80;;
37205;SDS011;23099;42.636;23.198;2022-09-21T05:46:36;11.80;;;3.50;;
37205;SDS011;23099;42.636;23.198;2022-09-21T05:49:12;5.43;;;1.65;;
37205;SDS011;23099;42.636;23.198;2022-09-21T05:51:47;6.20;;;0.98;;
37205;SDS011;23099;42.636;23.198;2022-09-21T05:54:24;4.05;;;1.15;;
37205;SDS011;23099;42.636;23.198;2022-09-21T05:57:03;5.40;;;1.17;;
37205;SDS011;23099;42.636;23.198;2022-09-21T05:59:42;6.40;;;1.00;;
37205;SDS011;23099;42.636;23.198;2022-09-21T06:02:17;7.43;;;0.93;;
37205;SDS011;23099;42.636;23.198;2022-09-21T06:04:53;5.20;;;1.20;;
37205;SDS011;23099;42.636;23.198;2022-09-21T06:07:22;6.53;;;1.40;;
37205;SDS011;23099;42.636;23.198;2022-09-21T06:09:49;75.43;;;20.95;;
37205;SDS011;23099;42.636;23.198;2022-09-21T06:12:16;90.45;;;23.83;;
37205;SDS011;23099;42.636;23.198;2022-09-21T06:14:42;99.93;;;29.40;;
37205;SDS011;23099;42.636;23.198;2022-09-21T06:17:09;87.35;;;26.20;;
37205;SDS011;23099;42.636;23.198;2022-09-21T06:19:36;103.40;;;27.85;;
37205;SDS011;23099;42.636;23.198;2022-09-21T06:22:04;31.80;;;8.45;;
37205;SDS011;23099;42.636;23.198;2022-09-21T06:24:30;10.32;;;1.77;;
37205;SDS011;23099;42.636;23.198;2022-09-21T06:26:57;10.52;;;2.13;;
37205;SDS011;23099;42.636;23.198;2022-09-21T06:29:24;11.82;;;2.30;;
37205;SDS011;23099;42.636;23.198;2022-09-21T06:31:50;5.43;;;1.13;;
37205;SDS011;23099;42.636;23.198;2022-09-21T06:34:17;6.28;;;1.00;;
37205;SDS011;23099;42.636;23.198;2022-09-21T06:36:44;3.03;;;0.75;;
37205;SDS011;23099;42.636;23.198;2022-09-21T06:39:12;2.80;;;0.77;;
37205;SDS011;23099;42.636;23.198;2022-09-21T06:41:39;1.52;;;0.50;;
37205;SDS011;23099;42.636;23.198;2022-09-21T06:44:05;1.45;;;0.50;;
37205;SDS011;23099;42.636;23.198;2022-09-21T06:46:32;3.95;;;0.63;;
37205;SDS011;23099;42.636;23.198;2022-09-21T06:48:59;7.53;;;1.55;;
37205;SDS011;23099;42.636;23.198;2022-09-21T06:51:25;3.85;;;0.50;;
37205;SDS011;23099;42.636;23.198;2022-09-21T06:53:56;4.32;;;0.90;;
37205;SDS011;23099;42.636;23.198;2022-09-21T06:56:24;3.20;;;0.50;;
37205;SDS011;23099;42.636;23.198;2022-09-21T06:58:51;1.48;;;0.40;;
37205;SDS011;23099;42.636;23.198;2022-09-21T07:01:18;2.80;;;0.50;;
37205;SDS011;23099;42.636;23.198;2022-09-21T07:03:47;1.83;;;0.50;;
37205;SDS011;23099;42.636;23.198;2022-09-21T07:06:16;4.50;;;1.67;;
37205;SDS011;23099;42.636;23.198;2022-09-21T07:08:45;3.15;;;1.00;;
37205;SDS011;23099;42.636;23.198;2022-09-21T07:11:12;1.88;;;0.50;;
37205;SDS011;23099;42.636;23.198;2022-09-21T07:13:41;1.43;;;0.50;;
37205;SDS011;23099;42.636;23.198;2022-09-21T07:16:09;1.90;;;0.60;;
37205;SDS011;23099;42.636;23.198;2022-09-21T07:18:36;4.22;;;0.60;;
37205;SDS011;23099;42.636;23.198;2022-09-21T07:21:06;1.98;;;0.50;;
37205;SDS011;23099;42.636;23.198;2022-09-21T07:26:01;1.98;;;0.60;;
37205;SDS011;23099;42.636;23.198;2022-09-21T07:28:29;1.70;;;0.50;;
37205;SDS011;23099;42.636;23.198;2022-09-21T07:30:58;2.15;;;0.63;;
37205;SDS011;23099;42.636;23.198;2022-09-21T07:33:31;4.18;;;0.60;;
37205;SDS011;23099;42.636;23.198;2022-09-21T07:35:59;4.60;;;0.60;;
37205;SDS011;23099;42.636;23.198;2022-09-21T07:38:26;1.40;;;0.50;;
37205;SDS011;23099;42.636;23.198;2022-09-21T07:40:53;2.28;;;0.50;;
37205;SDS011;23099;42.636;23.198;2022-09-21T07:43:20;1.80;;;0.52;;
37205;SDS011;23099;42.636;23.198;2022-09-21T07:45:51;1.85;;;0.60;;
37205;SDS011;23099;42.636;23.198;2022-09-21T07:48:20;4.22;;;1.48;;
37205;SDS011;23099;42.636;23.198;2022-09-21T07:53:14;2.15;;;0.70;;
37205;SDS011;23099;42.636;23.198;2022-09-21T07:55:41;1.38;;;0.50;;
37205;SDS011;23099;42.636;23.198;2022-09-21T07:58:08;2.92;;;0.63;;
37205;SDS011;23099;42.636;23.198;2022-09-21T08:00:52;9.65;;;0.88;;
37205;SDS011;23099;42.636;23.198;2022-09-21T08:03:20;1.70;;;0.70;;
37205;SDS011;23099;42.636;23.198;2022-09-21T08:05:47;2.38;;;0.50;;
37205;SDS011;23099;42.636;23.198;2022-09-21T08:08:14;1.35;;;0.50;;
37205;SDS011;23099;42.636;23.198;2022-09-21T08:10:41;2.20;;;0.73;;
37205;SDS011;23099;42.636;23.198;2022-09-21T08:13:07;1.67;;;0.52;;
37205;SDS011;23099;42.636;23.198;2022-09-21T08:15:34;2.53;;;0.60;;
37205;SDS011;23099;42.636;23.198;2022-09-21T08:18:02;1.48;;;0.50;;
37205;SDS011;23099;42.636;23.198;2022-09-21T08:20:32;1.17;;;0.47;;
37205;SDS011;23099;42.636;23.198;2022-09-21T08:22:59;2.00;;;0.57;;
37205;SDS011;23099;42.636;23.198;2022-09-21T08:25:26;2.22;;;0.57;;
37205;SDS011;23099;42.636;23.198;2022-09-21T08:27:56;1.80;;;0.52;;
37205;SDS011;23099;42.636;23.198;2022-09-21T08:30:24;2.15;;;0.45;;
37205;SDS011;23099;42.636;23.198;2022-09-21T08:32:52;1.67;;;0.50;;
37205;SDS011;23099;42.636;23.198;2022-09-21T08:35:20;2.65;;;0.50;;
37205;SDS011;23099;42.636;23.198;2022-09-21T08:37:51;2.08;;;0.50;;
37205;SDS011;23099;42.636;23.198;2022-09-21T08:40:18;1.23;;;0.50;;
37205;SDS011;23099;42.636;23.198;2022-09-21T08:42:47;2.38;;;0.50;;
37205;SDS011;23099;42.636;23.198;2022-09-21T08:45:21;3.35;;;0.70;;
37205;SDS011;23099;42.636;23.198;2022-09-21T08:47:52;3.10;;;0.50;;
37205;SDS011;23099;42.636;23.198;2022-09-21T08:50:25;2.67;;;0.50;;
37205;SDS011;23099;42.636;23.198;2022-09-21T08:53:01;1.00;;;0.40;;
37205;SDS011;23099;42.636;23.198;2022-09-21T08:55:31;1.15;;;0.50;;
37205;SDS011;23099;42.636;23.198;2022-09-21T08:57:58;0.93;;;0.40;;
37205;SDS011;23099;42.636;23.198;2022-09-21T09:00:25;1.98;;;0.40;;
37205;SDS011;23099;42.636;23.198;2022-09-21T09:03:06;1.20;;;0.40;;
37205;SDS011;23099;42.636;23.198;2022-09-21T09:05:58;1.58;;;0.50;;
37205;SDS011;23099;42.636;23.198;2022-09-21T09:11:47;2.00;;;0.50;;
37205;SDS011;23099;42.636;23.198;2022-09-21T09:14:34;1.10;;;0.40;;
37205;SDS011;23099;42.636;23.198;2022-09-21T09:17:22;1.88;;;0.40;;
37205;SDS011;23099;42.636;23.198;2022-09-21T09:20:04;1.80;;;0.40;;
37205;SDS011;23099;42.636;23.198;2022-09-21T09:22:39;1.20;;;0.40;;
37205;SDS011;23099;42.636;23.198;2022-09-21T09:25:14;4.00;;;0.40;;
37205;SDS011;23099;42.636;23.198;2022-09-21T09:27:45;3.80;;;0.50;;
37205;SDS011;23099;42.636;23.198;2022-09-21T09:30:15;1.70;;;0.40;;
37205;SDS011;23099;42.636;23.198;2022-09-21T09:32:46;1.75;;;0.40;;
37205;SDS011;23099;42.636;23.198;2022-09-21T09:35:21;2.38;;;0.40;;
37205;SDS011;23099;42.636;23.198;2022-09-21T09:37:53;4.13;;;0.40;;
37205;SDS011;23099;42.636;23.198;2022-09-21T09:40:28;4.13;;;0.52;;
37205;SDS011;23099;42.636;23.198;2022-09-21T09:43:17;2.17;;;0.60;;
37205;SDS011;23099;42.636;23.198;2022-09-21T09:45:58;3.13;;;0.50;;
37205;SDS011;23099;42.636;23.198;2022-09-21T09:48:41;2.60;;;0.60;;
37205;SDS011;23099;42.636;23.198;2022-09-21T09:51:29;2.28;;;0.43;;
37205;SDS011;23099;42.636;23.198;2022-09-21T09:54:04;2.33;;;0.50;;
37205;SDS011;23099;42.636;23.198;2022-09-21T09:56:32;1.58;;;0.50;;
37205;SDS011;23099;42.636;23.198;2022-09-21T09:58:59;1.75;;;0.50;;
37205;SDS011;23099;42.636;23.198;2022-09-21T10:01:35;2.08;;;0.63;;
37205;SDS011;23099;42.636;23.198;2022-09-21T10:04:04;1.50;;;0.50;;
37205;SDS011;23099;42.636;23.198;2022-09-21T10:06:33;2.33;;;0.30;;
37205;SDS011;23099;42.636;23.198;2022-09-21T10:08:59;2.72;;;0.60;;
37205;SDS011;23099;42.636;23.198;2022-09-21T10:11:34;2.47;;;0.57;;
37205;SDS011;23099;42.636;23.198;2022-09-21T10:14:06;3.42;;;0.45;;
37205;SDS011;23099;42.636;23.198;2022-09-21T10:16:38;2.88;;;0.47;;
37205;SDS011;23099;42.636;23.198;2022-09-21T10:19:10;2.03;;;0.43;;
37205;SDS011;23099;42.636;23.198;2022-09-21T10:21:42;2.20;;;0.40;;
37205;SDS011;23099;42.636;23.198;2022-09-21T10:24:14;3.20;;;0.40;;
37205;SDS011;23099;42.636;23.198;2022-09-21T10:26:49;1.70;;;0.38;;
37205;SDS011;23099;42.636;23.198;2022-09-21T10:29:27;6.13;;;0.80;;
37205;SDS011;23099;42.636;23.198;2022-09-21T10:31:56;1.70;;;0.30;;
37205;SDS011;23099;42.636;23.198;2022-09-21T10:34:25;1.60;;;0.40;;
37205;SDS011;23099;42.636;23.198;2022-09-21T10:36:54;1.65;;;0.40;;
37205;SDS011;23099;42.636;23.198;2022-09-21T10:39:23;1.40;;;0.32;;
37205;SDS011;23099;42.636;23.198;2022-09-21T10:41:55;1.50;;;0.20;;
37205;SDS011;23099;42.636;23.198;2022-09-21T10:44:25;6.72;;;0.40;;
37205;SDS011;23099;42.636;23.198;2022-09-21T10:46:54;6.80;;;1.27;;
37205;SDS011;23099;42.636;23.198;2022-09-21T10:49:22;35.72;;;11.88;;
37205;SDS011;23099;42.636;23.198;2022-09-21T10:51:51;1.25;;;0.40;;
37205;SDS011;23099;42.636;23.198;2022-09-21T10:54:22;1.17;;;0.30;;
37205;SDS011;23099;42.636;23.198;2022-09-21T10:56:52;1.55;;;0.40;;
37205;SDS011;23099;42.636;23.198;2022-09-21T10:59:24;2.05;;;0.40;;
37205;SDS011;23099;42.636;23.198;2022-09-21T11:01:53;2.15;;;0.40;;
37205;SDS011;23099;42.636;23.198;2022-09-21T11:04:24;1.25;;;0.22;;
37205;SDS011;23099;42.636;23.198;2022-09-21T11:07:01;1.45;;;0.38;;
37205;SDS011;23099;42.636;23.198;2022-09-21T11:09:35;1.30;;;0.35;;
37205;SDS011;23099;42.636;23.198;2022-09-21T11:12:19;1.10;;;0.30;;
37205;SDS011;23099;42.636;23.198;2022-09-21T11:14:55;1.60;;;0.30;;
37205;SDS011;23099;42.636;23.198;2022-09-21T11:17:32;0.63;;;0.20;;
37205;SDS011;23099;42.636;23.198;2022-09-21T11:20:04;1.25;;;0.40;;
37205;SDS011;23099;42.636;23.198;2022-09-21T11:22:41;1.00;;;0.30;;
37205;SDS011;23099;42.636;23.198;2022-09-21T11:25:20;1.10;;;0.30;;
37205;SDS011;23099;42.636;23.198;2022-09-21T11:27:57;0.50;;;0.20;;
37205;SDS011;23099;42.636;23.198;2022-09-21T11:30:31;1.55;;;0.25;;
37205;SDS011;23099;42.636;23.198;2022-09-21T11:33:14;0.90;;;0.20;;
37205;SDS011;23099;42.636;23.198;2022-09-21T11:35:51;0.40;;;0.20;;
37205;SDS011;23099;42.636;23.198;2022-09-21T11:38:38;0.70;;;0.20;;
37205;SDS011;23099;42.636;23.198;2022-09-21T11:41:16;0.88;;;0.20;;
37205;SDS011;23099;42.636;23.198;2022-09-21T11:43:56;1.05;;;0.40;;
37205;SDS011;23099;42.636;23.198;2022-09-21T11:46:35;1.35;;;0.38;;
37205;SDS011;23099;42.636;23.198;2022-09-21T11:49:17;1.05;;;0.40;;
37205;SDS011;23099;42.636;23.198;2022-09-21T11:52:10;2.20;;;0.40;;
37205;SDS011;23099;42.636;23.198;2022-09-21T11:54:55;0.90;;;0.30;;
37205;SDS011;23099;42.636;23.198;2022-09-21T11:57:33;1.65;;;0.30;;
37205;SDS011;23099;42.636;23.198;2022-09-21T12:00:11;2.53;;;0.30;;
37205;SDS011;23099;42.636;23.198;2022-09-21T12:05:44;1.10;;;0.30;;
37205;SDS011;23099;42.636;23.198;2022-09-21T12:08:32;1.70;;;0.40;;
37205;SDS011;23099;42.636;23.198;2022-09-21T12:11:13;4.43;;;0.30;;
37205;SDS011;23099;42.636;23.198;2022-09-21T12:13:48;1.13;;;0.30;;
37205;SDS011;23099;42.636;23.198;2022-09-21T12:16:25;1.05;;;0.40;;
37205;SDS011;23099;42.636;23.198;2022-09-21T12:18:59;1.63;;;0.30;;
37205;SDS011;23099;42.636;23.198;2022-09-21T12:21:34;2.15;;;0.30;;
37205;SDS011;23099;42.636;23.198;2022-09-21T12:24:10;1.10;;;0.30;;
37205;SDS011;23099;42.636;23.198;2022-09-21T12:26:40;1.98;;;0.30;;
37205;SDS011;23099;42.636;23.198;2022-09-21T12:29:11;1.77;;;0.30;;
37205;SDS011;23099;42.636;23.198;2022-09-21T12:31:46;0.80;;;0.30;;
37205;SDS011;23099;42.636;23.198;2022-09-21T12:34:20;3.08;;;0.88;;
37205;SDS011;23099;42.636;23.198;2022-09-21T12:36:53;0.77;;;0.20;;
37205;SDS011;23099;42.636;23.198;2022-09-21T12:39:31;1.15;;;0.30;;
37205;SDS011;23099;42.636;23.198;2022-09-21T12:42:06;2.00;;;0.30;;
37205;SDS011;23099;42.636;23.198;2022-09-21T12:44:44;0.98;;;0.30;;
37205;SDS011;23099;42.636;23.198;2022-09-21T12:47:21;0.93;;;0.20;;
37205;SDS011;23099;42.636;23.198;2022-09-21T12:49:55;0.95;;;0.30;;
37205;SDS011;23099;42.636;23.198;2022-09-21T12:52:24;1.85;;;0.30;;
37205;SDS011;23099;42.636;23.198;2022-09-21T12:54:54;2.00;;;0.32;;
37205;SDS011;23099;42.636;23.198;2022-09-21T12:57:29;3.45;;;0.30;;
37205;SDS011;23099;42.636;23.198;2022-09-21T13:00:02;0.70;;;0.30;;
37205;SDS011;23099;42.636;23.198;2022-09-21T13:02:33;0.63;;;0.20;;
37205;SDS011;23099;42.636;23.198;2022-09-21T13:05:10;0.70;;;0.28;;
37205;SDS011;23099;42.636;23.198;2022-09-21T13:10:39;1.55;;;0.50;;
37205;SDS011;23099;42.636;23.198;2022-09-21T13:13:15;1.27;;;0.35;;
37205;SDS011;23099;42.636;23.198;2022-09-21T13:15:48;1.63;;;0.50;;
37205;SDS011;23099;42.636;23.198;2022-09-21T13:18:19;2.15;;;0.65;;
37205;SDS011;23099;42.636;23.198;2022-09-21T13:20:49;2.40;;;0.50;;
37205;SDS011;23099;42.636;23.198;2022-09-21T13:23:19;1.80;;;0.60;;
37205;SDS011;23099;42.636;23.198;2022-09-21T13:25:57;1.85;;;0.60;;
37205;SDS011;23099;42.636;23.198;2022-09-21T13:28:38;1.77;;;0.60;;
37205;SDS011;23099;42.636;23.198;2022-09-21T13:34:18;1.90;;;0.70;;
37205;SDS011;23099;42.636;23.198;2022-09-21T13:43:14;2.67;;;0.90;;
37205;SDS011;23099;42.636;23.198;2022-09-21T13:45:51;2.40;;;0.77;;
37205;SDS011;23099;42.636;23.198;2022-09-21T13:48:22;2.65;;;0.80;;
37205;SDS011;23099;42.636;23.198;2022-09-21T13:50:56;2.13;;;0.75;;
37205;SDS011;23099;42.636;23.198;2022-09-21T13:53:33;2.38;;;0.73;;
37205;SDS011;23099;42.636;23.198;2022-09-21T13:56:09;3.92;;;0.70;;
37205;SDS011;23099;42.636;23.198;2022-09-21T13:58:45;2.17;;;0.63;;
37205;SDS011;23099;42.636;23.198;2022-09-21T14:01:15;2.13;;;0.93;;
37205;SDS011;23099;42.636;23.198;2022-09-21T14:03:45;2.72;;;0.60;;
37205;SDS011;23099;42.636;23.198;2022-09-21T14:06:17;2.03;;;0.60;;
37205;SDS011;23099;42.636;23.198;2022-09-21T14:08:50;2.80;;;0.60;;
37205;SDS011;23099;42.636;23.198;2022-09-21T14:11:26;3.08;;;0.60;;
37205;SDS011;23099;42.636;23.198;2022-09-21T14:14:07;2.67;;;0.60;;
37205;SDS011;23099;42.636;23.198;2022-09-21T14:16:49;1.27;;;0.50;;
37205;SDS011;23099;42.636;23.198;2022-09-21T14:22:38;1.40;;;0.50;;
37205;SDS011;23099;42.636;23.198;2022-09-21T14:28:15;3.97;;;0.70;;
37205;SDS011;23099;42.636;23.198;2022-09-21T14:30:47;2.65;;;0.70;;
37205;SDS011;23099;42.636;23.198;2022-09-21T14:33:20;3.00;;;0.80;;
37205;SDS011;23099;42.636;23.198;2022-09-21T14:35:52;2.95;;;1.00;;
37205;SDS011;23099;42.636;23.198;2022-09-21T14:38:23;2.20;;;0.70;;
37205;SDS011;23099;42.636;23.198;2022-09-21T14:40:54;3.58;;;1.02;;
37205;SDS011;23099;42.636;23.198;2022-09-21T14:43:25;2.10;;;0.80;;
37205;SDS011;23099;42.636;23.198;2022-09-21T14:46:06;4.03;;;0.80;;
37205;SDS011;23099;42.636;23.198;2022-09-21T14:48:43;2.85;;;0.77;;
37205;SDS011;23099;42.636;23.198;2022-09-21T14:51:21;2.72;;;1.00;;
37205;SDS011;23099;42.636;23.198;2022-09-21T14:53:58;2.78;;;1.00;;
37205;SDS011;23099;42.636;23.198;2022-09-21T14:56:40;2.72;;;0.90;;
37205;SDS011;23099;42.636;23.198;2022-09-21T15:02:16;3.20;;;1.20;;
37205;SDS011;23099;42.636;23.198;2022-09-21T15:04:53;3.28;;;1.27;;
37205;SDS011;23099;42.636;23.198;2022-09-21T15:07:37;4.60;;;1.10;;
37205;SDS011;23099;42.636;23.198;2022-09-21T15:10:30;2.22;;;0.80;;
37205;SDS011;23099;42.636;23.198;2022-09-21T15:13:20;2.63;;;0.95;;
37205;SDS011;23099;42.636;23.198;2022-09-21T15:16:02;2.60;;;0.90;;
37205;SDS011;23099;42.636;23.198;2022-09-21T15:18:39;2.42;;;0.90;;
37205;SDS011;23099;42.636;23.198;2022-09-21T15:21:17;1.98;;;0.80;;
37205;SDS011;23099;42.636;23.198;2022-09-21T15:23:48;1.85;;;0.68;;
37205;SDS011;23099;42.636;23.198;2022-09-21T15:26:19;3.28;;;1.10;;
37205;SDS011;23099;42.636;23.198;2022-09-21T15:28:52;2.17;;;0.75;;
37205;SDS011;23099;42.636;23.198;2022-09-21T15:31:20;2.90;;;0.88;;
37205;SDS011;23099;42.636;23.198;2022-09-21T15:33:47;6.38;;;2.00;;
37205;SDS011;23099;42.636;23.198;2022-09-21T15:36:18;3.17;;;1.30;;
37205;SDS011;23099;42.636;23.198;2022-09-21T15:38:46;2.22;;;0.77;;
37205;SDS011;23099;42.636;23.198;2022-09-21T15:41:28;3.70;;;1.13;;
37205;SDS011;23099;42.636;23.198;2022-09-21T15:44:05;2.10;;;0.80;;